Time;durP1;ratioP1;P1;durP2;ratioP2;P2;SDS_P1;SDS_P2;PMS_P1;PMS_P2;Temp;Humidity;BMP_temperature;BMP_pressure;BME280_temperature;BME280_humidity;BME280_pressure;Samples;Min_cycle;Max_cycle;Signal;HPM_P1;HPM_P2
2022/11/02 00:02:09;;;;;;;;;;;;;;;16.61;87.64;100669.13;5061546;28;1992;-61
2022/11/02 00:04:34;;;;;;;;;;;;;;;16.59;86.60;100665.81;5069257;28;2003;-61
2022/11/02 00:06:59;;;;;;;;;;;;;;;16.59;86.72;100666.63;5065960;28;1930;-60
2022/11/02 00:09:25;;;;;;;;;;;;;;;16.60;86.80;100662.75;5059776;28;1864;-62
2022/11/02 00:11:50;;;;;;;;;;;;;;;16.61;87.06;100658.88;5063069;28;1857;-61
2022/11/02 00:14:15;;;;;;;;;;;;;;;16.61;87.33;100663.59;5066278;28;1959;-60
2022/11/02 00:16:40;;;;;;;;;;;;;;;16.61;87.12;100658.06;5071230;28;2379;-59
2022/11/02 00:19:07;;;;;;;;;;;;;;;16.61;86.85;100644.25;5071604;28;1778;-60
2022/11/02 00:21:32;;;;;;;;;;;;;;;16.61;86.87;100647.00;5061979;28;1890;-61
2022/11/02 00:23:59;;;;;;;;;;;;;;;16.60;87.24;100642.56;5063881;28;1813;-60
2022/11/02 00:26:25;;;;;;;;;;;;;;;16.60;87.66;100635.09;5071527;28;1702;-61
2022/11/02 00:28:50;;;;;;;;;;;;;;;16.59;87.10;100636.22;5071285;28;1628;-61
2022/11/02 00:31:15;;;;;;;;;;;;;;;16.62;86.88;100645.88;5076198;28;1596;-62
2022/11/02 00:33:40;;;;;;;;;;;;;;;16.61;87.98;100630.44;5073979;28;1969;-61
2022/11/02 00:36:05;;;;;;;;;;;;;;;16.59;87.32;100629.88;5070135;28;1571;-61
2022/11/02 00:38:31;;;;;;;;;;;;;;;16.60;87.54;100631.53;5077035;28;874;-60
2022/11/02 00:40:56;;;;;;;;;;;;;;;16.60;87.05;100624.06;5076626;28;893;-61
2022/11/02 00:43:21;;;;;;;;;;;;;;;16.60;87.88;100613.00;5075766;28;2522;-62
2022/11/02 00:45:46;;;;;;;;;;;;;;;16.60;87.89;100612.19;5066329;28;1571;-61
2022/11/02 00:48:11;;;;;;;;;;;;;;;16.60;87.46;100613.00;5076442;28;1058;-63
2022/11/02 00:50:36;;;;;;;;;;;;;;;16.59;87.60;100607.78;5076517;28;860;-61
2022/11/02 00:53:02;;;;;;;;;;;;;;;16.59;87.64;100610.53;5076258;28;1901;-61
2022/11/02 00:55:27;;;;;;;;;;;;;;;16.60;88.04;100614.94;5075201;28;2204;-59
2022/11/02 00:57:52;;;;;;;;;;;;;;;16.60;87.37;100612.19;5062479;28;847;-61
2022/11/02 01:00:18;;;;;;;;;;;;;;;16.61;87.74;100608.31;5065535;28;1879;-62
2022/11/02 01:02:43;;;;;;;;;;;;;;;16.62;88.25;100609.94;5061521;28;1786;-59
2022/11/02 01:05:09;;;;;;;;;;;;;;;16.59;87.40;100605.84;5069600;28;2156;-61
2022/11/02 01:07:36;;;;;;;;;;;;;;;16.59;88.27;100599.50;5073629;28;1847;-60
2022/11/02 01:10:01;;;;;;;;;;;;;;;16.58;87.97;100607.00;5063863;28;1606;-60
2022/11/02 01:12:26;;;;;;;;;;;;;;;16.58;87.97;100604.22;5068929;28;1961;-60
2022/11/02 01:14:51;;;;;;;;;;;;;;;16.58;88.37;100607.00;5063408;28;1875;-60
2022/11/02 01:17:17;;;;;;;;;;;;;;;16.58;87.97;100606.19;5070638;28;2016;-61
2022/11/02 01:19:42;;;;;;;;;;;;;;;16.59;87.88;100605.84;5063718;28;1878;-60
2022/11/02 01:22:07;;;;;;;;;;;;;;;16.58;87.61;100593.19;5066532;28;1981;-60
2022/11/02 01:24:33;;;;;;;;;;;;;;;16.58;87.96;100598.72;5070081;28;1815;-60
2022/11/02 01:26:58;;;;;;;;;;;;;;;16.58;87.83;100597.88;5071840;28;2073;-61
2022/11/02 01:29:23;;;;;;;;;;;;;;;16.57;88.29;100599.84;5069818;28;1890;-60
2022/11/02 01:31:48;;;;;;;;;;;;;;;16.58;88.91;100581.31;5062469;28;1762;-61
2022/11/02 01:34:14;;;;;;;;;;;;;;;16.58;88.55;100570.25;5067727;28;1893;-59
2022/11/02 01:36:39;;;;;;;;;;;;;;;16.56;88.16;100573.31;5073602;28;1953;-60
2022/11/02 01:39:04;;;;;;;;;;;;;;;16.56;88.47;100567.81;5064093;28;2181;-60
2022/11/02 01:41:30;;;;;;;;;;;;;;;16.57;87.85;100563.09;5069934;28;1996;-60
2022/11/02 01:43:57;;;;;;;;;;;;;;;16.56;88.10;100561.47;5063541;28;1795;-61
2022/11/02 01:46:26;;;;;;;;;;;;;;;16.57;87.94;100554.81;5074482;28;1616;-60
2022/11/02 01:48:59;;;;;;;;;;;;;;;16.57;88.60;100565.84;5062773;28;1597;-61
2022/11/02 01:51:26;;;;;;;;;;;;;;;16.58;88.75;100564.72;5063529;28;1939;-61
2022/11/02 01:53:53;;;;;;;;;;;;;;;16.58;88.55;100564.72;5062841;28;1898;-62
2022/11/02 01:56:21;;;;;;;;;;;;;;;16.58;88.90;100554.50;5066557;28;1779;-60
2022/11/02 01:58:48;;;;;;;;;;;;;;;16.58;88.18;100554.50;5070256;28;1798;-60
2022/11/02 02:01:13;;;;;;;;;;;;;;;16.58;88.44;100548.16;5056230;28;1982;-62
2022/11/02 02:03:40;;;;;;;;;;;;;;;16.60;88.43;100552.19;5064239;28;1793;-60
2022/11/02 02:06:07;;;;;;;;;;;;;;;16.59;88.42;100533.16;5072193;28;2007;-60
2022/11/02 02:08:35;;;;;;;;;;;;;;;16.58;88.48;100531.56;5074063;28;1878;-60
2022/11/02 02:11:00;;;;;;;;;;;;;;;16.59;88.99;100536.75;5069328;28;1837;-61
2022/11/02 02:13:26;;;;;;;;;;;;;;;16.58;88.84;100535.16;5062749;28;1893;-59
2022/11/02 02:16:06;;;;;;;;;;;;;;;16.58;89.24;100543.44;5070881;28;1874;-60
2022/11/02 02:18:47;;;;;;;;;;;;;;;16.57;88.70;100536.28;5074855;28;1821;-62
2022/11/02 02:21:27;;;;;;;;;;;;;;;16.57;88.30;100532.69;5063452;28;1948;-61
2022/11/02 02:24:01;;;;;;;;;;;;;;;16.56;88.99;100537.41;5064971;28;1911;-60
2022/11/02 02:26:44;;;;;;;;;;;;;;;16.57;88.48;100532.69;5070008;28;1638;-61
2022/11/02 02:29:13;;;;;;;;;;;;;;;16.57;89.16;100535.47;5068991;28;1620;-61
2022/11/02 02:31:57;;;;;;;;;;;;;;;16.57;89.11;100541.81;5074690;28;1649;-61
2022/11/02 02:34:36;;;;;;;;;;;;;;;16.58;89.37;100521.34;5073634;28;2017;-62
2022/11/02 02:37:05;;;;;;;;;;;;;;;16.58;88.85;100521.34;5067121;28;1615;-61
2022/11/02 02:39:36;;;;;;;;;;;;;;;16.57;89.04;100530.75;5074299;28;873;-61
2022/11/02 02:42:22;;;;;;;;;;;;;;;16.57;89.30;100516.13;5074349;28;821;-59
2022/11/02 02:44:52;;;;;;;;;;;;;;;16.56;88.87;100522.78;5069095;28;2042;-60
2022/11/02 02:47:20;;;;;;;;;;;;;;;16.54;88.53;100523.09;5069272;28;1673;-61
2022/11/02 02:49:53;;;;;;;;;;;;;;;16.54;88.74;100516.75;5064762;28;2196;-61
2022/11/02 02:52:21;;;;;;;;;;;;;;;16.54;89.31;100525.84;5074119;28;1548;-61
2022/11/02 02:54:47;;;;;;;;;;;;;;;16.54;88.61;100536.91;5071971;28;1975;-61
2022/11/02 02:57:15;;;;;;;;;;;;;;;16.54;88.52;100549.91;5065601;28;1996;-63
2022/11/02 02:59:42;;;;;;;;;;;;;;;16.54;89.24;100536.91;5064866;28;1876;-63
2022/11/02 03:02:11;;;;;;;;;;;;;;;16.54;88.51;100549.91;5069472;28;2065;-61
2022/11/02 03:04:36;;;;;;;;;;;;;;;16.52;89.56;100544.69;5070364;28;1799;-60
2022/11/02 03:07:01;;;;;;;;;;;;;;;16.54;88.56;100530.56;5071764;28;1679;-62
2022/11/02 03:09:33;;;;;;;;;;;;;;;16.53;88.73;100538.03;5064424;28;1761;-60
2022/11/02 03:11:58;;;;;;;;;;;;;;;16.54;89.14;100542.44;5062537;28;1988;-61
2022/11/02 03:14:29;;;;;;;;;;;;;;;16.55;89.45;100549.59;5062674;28;1957;-61
2022/11/02 03:16:54;;;;;;;;;;;;;;;16.57;89.07;100549.28;5070856;28;1920;-60
2022/11/02 03:19:23;;;;;;;;;;;;;;;16.59;89.96;100552.50;5065478;28;1592;-61
2022/11/02 03:21:54;;;;;;;;;;;;;;;16.58;89.26;100545.38;5063009;28;1896;-61
2022/11/02 03:24:25;;;;;;;;;;;;;;;16.57;89.15;100558.38;5063838;28;1743;-59
2022/11/02 03:26:57;;;;;;;;;;;;;;;16.58;89.96;100554.50;5065672;28;1851;-60
2022/11/02 03:29:43;;;;;;;;;;;;;;;16.59;90.13;100553.31;5056426;28;1678;-61
2022/11/02 03:32:12;;;;;;;;;;;;;;;16.58;90.04;100553.69;5060449;28;2005;-60
2022/11/02 03:34:43;;;;;;;;;;;;;;;16.55;90.07;100560.66;5062337;28;1969;-62
2022/11/02 03:37:14;;;;;;;;;;;;;;;16.56;89.72;100553.97;5071788;28;2047;-61
2022/11/02 03:39:42;;;;;;;;;;;;;;;16.55;89.35;100560.66;5070144;28;1722;-62
2022/11/02 03:42:10;;;;;;;;;;;;;;;16.55;89.49;100546.81;5065449;28;1978;-60
2022/11/02 03:44:37;;;;;;;;;;;;;;;16.54;89.87;100550.72;5064582;28;1743;-60
2022/11/02 03:47:02;;;;;;;;;;;;;;;16.54;89.78;100550.72;5071506;28;2036;-60
2022/11/02 03:49:28;;;;;;;;;;;;;;;16.54;90.44;100558.19;5071967;28;1866;-60
2022/11/02 03:51:55;;;;;;;;;;;;;;;16.53;89.34;100553.78;5063303;28;1931;-60
2022/11/02 03:54:26;;;;;;;;;;;;;;;16.53;89.98;100553.78;5072225;28;1959;-61
2022/11/02 03:56:54;;;;;;;;;;;;;;;16.53;89.89;100556.56;5070232;28;1910;-60
2022/11/02 03:59:19;;;;;;;;;;;;;;;16.52;89.08;100547.44;5071828;28;1771;-60
2022/11/02 04:01:47;;;;;;;;;;;;;;;16.52;89.47;100552.97;5061469;28;1796;-61
2022/11/02 04:04:12;;;;;;;;;;;;;;;16.51;89.20;100556.88;5060394;28;1722;-61
2022/11/02 04:06:38;;;;;;;;;;;;;;;16.51;89.26;100551.34;5066659;28;1962;-60
2022/11/02 04:09:04;;;;;;;;;;;;;;;16.52;89.98;100552.97;5070964;28;2128;-61
2022/11/02 04:19:42;;;;;;;;;;;;;;;16.50;89.42;100565.50;5043744;28;1968;-60
2022/11/02 04:27:35;;;;;;;;;;;;;;;16.49;89.45;100564.69;5072638;28;1887;-61
2022/11/02 04:30:00;;;;;;;;;;;;;;;16.49;89.50;100563.88;5073022;28;809;-60
2022/11/02 04:35:09;;;;;;;;;;;;;;;16.49;89.48;100575.75;5071782;28;1978;-61
2022/11/02 04:40:25;;;;;;;;;;;;;;;16.49;89.59;100569.41;5032787;28;1544;-63
2022/11/02 04:42:50;;;;;;;;;;;;;;;16.49;89.76;100572.97;5032570;28;1601;-63
2022/11/02 04:45:15;;;;;;;;;;;;;;;16.49;89.51;100572.97;5032717;28;1074;-62
2022/11/02 04:47:41;;;;;;;;;;;;;;;16.48;89.24;100576.88;5050164;28;2182;-63
2022/11/02 04:50:06;;;;;;;;;;;;;;;16.48;89.35;100567.75;5052641;28;1665;-63
2022/11/02 04:52:31;;;;;;;;;;;;;;;16.47;89.63;100564.19;5052587;28;874;-61
2022/11/02 04:54:56;;;;;;;;;;;;;;;16.48;89.96;100567.75;5052501;28;1967;-62
2022/11/02 04:57:21;;;;;;;;;;;;;;;16.48;89.95;100559.47;5052103;28;1219;-61
2022/11/02 04:59:47;;;;;;;;;;;;;;;16.49;89.84;100570.22;5052462;28;944;-63
2022/11/02 05:02:12;;;;;;;;;;;;;;;16.49;89.61;100561.09;5049653;28;1887;-62
2022/11/02 05:04:37;;;;;;;;;;;;;;;16.48;89.44;100560.28;5046820;28;1979;-62
2022/11/02 05:07:05;;;;;;;;;;;;;;;16.48;89.63;100565.81;5046034;28;1662;-63
2022/11/02 05:09:30;;;;;;;;;;;;;;;16.49;89.39;100567.44;5043391;28;1904;-63
2022/11/02 05:11:55;;;;;;;;;;;;;;;16.48;89.42;100562.25;5050427;28;2013;-62
2022/11/02 05:14:20;;;;;;;;;;;;;;;16.48;89.61;100568.59;5043826;28;2105;-62
2022/11/02 05:16:45;;;;;;;;;;;;;;;16.48;90.07;100576.06;5050346;28;1847;-63
2022/11/02 05:19:11;;;;;;;;;;;;;;;16.48;89.52;100587.91;5053986;28;2280;-63
2022/11/02 05:21:36;;;;;;;;;;;;;;;16.48;90.02;100589.88;5046866;28;1811;-62
2022/11/02 05:24:01;;;;;;;;;;;;;;;16.47;89.58;100589.06;5042815;28;1709;-63
2022/11/02 05:26:26;;;;;;;;;;;;;;;16.47;90.38;100591.81;5041256;28;1621;-62
2022/11/02 05:28:51;;;;;;;;;;;;;;;16.48;90.28;100598.16;5055898;28;1051;-62
2022/11/02 05:31:16;;;;;;;;;;;;;;;16.49;90.27;100594.28;5055867;28;802;-62
2022/11/02 05:33:41;;;;;;;;;;;;;;;16.48;90.42;100593.44;5054751;28;2177;-63
2022/11/02 05:36:08;;;;;;;;;;;;;;;16.47;90.23;100597.34;5054639;28;1765;-61
2022/11/02 05:38:33;;;;;;;;;;;;;;;16.47;90.27;100600.09;5050153;28;1991;-62
2022/11/02 05:40:58;;;;;;;;;;;;;;;16.48;90.33;100609.22;5042561;28;1916;-63
2022/11/02 05:43:23;;;;;;;;;;;;;;;16.48;89.94;100611.97;5043183;28;1729;-62
2022/11/02 05:45:56;;;;;;;;;;;;;;;16.47;90.44;100604.81;5053172;28;1957;-61
2022/11/02 05:48:21;;;;;;;;;;;;;;;16.47;89.78;100604.81;5053990;28;2065;-63
2022/11/02 05:50:46;;;;;;;;;;;;;;;16.46;90.20;100606.75;5053342;28;1970;-62
2022/11/02 05:53:12;;;;;;;;;;;;;;;16.47;90.23;100604.81;5054700;28;1960;-62
2022/11/02 05:55:37;;;;;;;;;;;;;;;16.47;90.20;100610.34;5046110;28;1586;-63
2022/11/02 05:58:02;;;;;;;;;;;;;;;16.45;90.11;100605.13;5053649;28;1893;-63
2022/11/02 06:00:27;;;;;;;;;;;;;;;16.47;90.32;100618.63;5053889;28;2084;-62
2022/11/02 06:02:56;;;;;;;;;;;;;;;16.48;90.13;100606.44;5054261;28;1649;-63
2022/11/02 06:05:22;;;;;;;;;;;;;;;16.49;90.79;100624.66;5046825;28;2026;-62
2022/11/02 06:07:47;;;;;;;;;;;;;;;16.49;90.36;100617.19;5052928;28;1819;-63
2022/11/02 06:10:12;;;;;;;;;;;;;;;16.49;90.42;100613.59;5054210;28;1769;-63
2022/11/02 06:12:37;;;;;;;;;;;;;;;16.49;90.36;100622.72;5051857;28;1921;-63
2022/11/02 06:15:02;;;;;;;;;;;;;;;16.50;90.84;100615.25;5052615;28;1906;-63
2022/11/02 06:17:28;;;;;;;;;;;;;;;16.50;90.62;100613.25;5052542;28;1888;-62
2022/11/02 06:19:53;;;;;;;;;;;;;;;16.51;91.05;100623.19;5044821;28;2026;-62
2022/11/02 06:22:18;;;;;;;;;;;;;;;16.52;90.43;100618.47;5046587;28;1867;-62
2022/11/02 06:24:43;;;;;;;;;;;;;;;16.51;90.78;100620.44;5051331;28;1778;-63
2022/11/02 06:27:08;;;;;;;;;;;;;;;16.51;90.72;100620.44;5047876;28;1902;-62
2022/11/02 06:29:33;;;;;;;;;;;;;;;16.51;90.95;100627.91;5052345;28;1521;-63
2022/11/02 06:31:59;;;;;;;;;;;;;;;16.50;91.47;100626.28;5054733;28;1586;-62
2022/11/02 06:34:24;;;;;;;;;;;;;;;16.53;91.08;100633.94;5051510;28;1898;-60
2022/11/02 06:36:49;;;;;;;;;;;;;;;16.67;91.50;100645.75;5052944;28;2165;-62
2022/11/02 06:39:14;;;;;;;;;;;;;;;16.64;90.41;100638.09;5046902;28;2124;-62
2022/11/02 06:41:39;;;;;;;;;;;;;;;16.60;90.50;100640.63;5052771;28;1539;-62
2022/11/02 06:44:04;;;;;;;;;;;;;;;16.56;91.31;100655.41;5052603;28;1815;-62
2022/11/02 06:46:29;;;;;;;;;;;;;;;16.52;91.31;100648.88;5053986;28;1292;-62
2022/11/02 06:48:55;;;;;;;;;;;;;;;16.51;91.35;100647.25;5053799;28;1528;-62
2022/11/02 06:51:20;;;;;;;;;;;;;;;16.52;91.07;100643.34;5053013;28;1786;-63
2022/11/02 06:53:45;;;;;;;;;;;;;;;16.53;91.03;100650.50;5050628;28;1898;-62
2022/11/02 06:56:11;;;;;;;;;;;;;;;16.51;91.11;100658.28;5050120;28;1867;-63
2022/11/02 06:58:36;;;;;;;;;;;;;;;16.50;90.44;100667.75;5054668;28;1214;-62
2022/11/02 07:01:05;;;;;;;;;;;;;;;16.49;90.29;100663.34;5048604;28;1877;-62
2022/11/02 07:03:31;;;;;;;;;;;;;;;16.46;90.24;100672.25;5050759;28;1854;-61
2022/11/02 07:05:56;;;;;;;;;;;;;;;16.44;90.93;100675.31;5053025;28;1681;-63
2022/11/02 07:08:21;;;;;;;;;;;;;;;16.43;90.46;100675.63;5053992;28;1606;-63
2022/11/02 07:10:47;;;;;;;;;;;;;;;16.42;90.37;100676.75;5051166;28;1882;-62
2022/11/02 07:13:12;;;;;;;;;;;;;;;16.41;91.11;100686.22;5053280;28;1894;-62
2022/11/02 07:15:38;;;;;;;;;;;;;;;16.42;90.84;100683.09;5051421;28;1791;-63
2022/11/02 07:18:05;;;;;;;;;;;;;;;16.51;90.15;100688.69;5048376;28;1967;-63
2022/11/02 07:20:30;;;;;;;;;;;;;;;16.57;89.99;100688.28;5048761;28;1876;-62
2022/11/02 07:22:56;;;;;;;;;;;;;;;16.56;88.93;100696.88;5048802;28;1828;-61
2022/11/02 07:25:22;;;;;;;;;;;;;;;16.27;87.17;100691.78;5045776;28;1986;-63
2022/11/02 07:27:47;;;;;;;;;;;;;;;16.07;86.15;100700.56;5045569;28;1876;-62
2022/11/02 07:30:12;;;;;;;;;;;;;;;16.16;87.12;100705.00;5043246;28;1897;-60
2022/11/02 07:32:38;;;;;;;;;;;;;;;16.23;87.43;100701.84;5034487;28;1730;-64
2022/11/02 07:35:03;;;;;;;;;;;;;;;16.26;88.18;100707.53;5047465;28;2108;-63
2022/11/02 07:37:28;;;;;;;;;;;;;;;16.28;87.83;100702.53;5044406;28;2364;-63
2022/11/02 07:39:53;;;;;;;;;;;;;;;16.28;88.56;100702.53;5053669;28;1161;-64
2022/11/02 07:42:18;;;;;;;;;;;;;;;16.29;88.02;100700.56;5054200;28;854;-64
2022/11/02 07:44:44;;;;;;;;;;;;;;;16.28;88.70;100698.94;5053156;28;2290;-62
2022/11/02 07:47:09;;;;;;;;;;;;;;;16.28;89.15;100715.50;5053873;28;1783;-64
2022/11/02 07:49:34;;;;;;;;;;;;;;;16.28;88.71;100710.00;5053737;28;1009;-63
2022/11/02 07:51:59;;;;;;;;;;;;;;;16.28;88.79;100715.50;5054265;28;979;-64
2022/11/02 07:54:24;;;;;;;;;;;;;;;16.27;89.20;100722.97;5034363;28;2210;-65
2022/11/02 07:56:49;;;;;;;;;;;;;;;16.28;88.94;100721.03;5049371;28;1879;-64
2022/11/02 07:59:14;;;;;;;;;;;;;;;16.27;88.80;100734.03;5052447;28;1688;-64
2022/11/02 08:01:40;;;;;;;;;;;;;;;16.29;89.29;100733.72;5053047;28;1676;-64
2022/11/02 08:04:05;;;;;;;;;;;;;;;16.28;89.13;100743.13;5053677;28;842;-64
2022/11/02 08:06:30;;;;;;;;;;;;;;;16.26;89.61;100737.09;5053379;28;1185;-63
2022/11/02 08:08:55;;;;;;;;;;;;;;;16.27;88.87;100745.09;5035757;28;738;-63
2022/11/02 08:11:20;;;;;;;;;;;;;;;16.26;89.12;100737.91;5053317;28;917;-63
2022/11/02 08:13:46;;;;;;;;;;;;;;;16.25;89.08;100739.03;5053647;28;1965;-63
2022/11/02 08:16:11;;;;;;;;;;;;;;;16.25;89.29;100735.47;5053634;28;1261;-63
2022/11/02 08:18:36;;;;;;;;;;;;;;;16.24;89.67;100740.19;5053686;28;817;-64
2022/11/02 08:21:01;;;;;;;;;;;;;;;16.25;89.10;100743.75;5054138;28;884;-63
2022/11/02 08:23:26;;;;;;;;;;;;;;;16.25;88.82;100754.81;5053701;28;931;-64
2022/11/02 08:25:52;;;;;;;;;;;;;;;16.24;89.34;100747.66;5053446;28;1308;-64
2022/11/02 08:28:19;;;;;;;;;;;;;;;16.25;89.40;100749.28;5053991;28;860;-63
2022/11/02 08:30:45;;;;;;;;;;;;;;;16.24;89.25;100756.78;5053815;28;789;-62
2022/11/02 08:33:12;;;;;;;;;;;;;;;16.25;89.04;100763.09;5053827;28;1977;-64
2022/11/02 08:35:38;;;;;;;;;;;;;;;16.24;89.09;100762.31;5053189;28;1373;-62
2022/11/02 08:38:03;;;;;;;;;;;;;;;16.22;89.22;100756.25;5053350;28;1368;-62
2022/11/02 08:40:28;;;;;;;;;;;;;;;16.22;88.83;100767.31;5053639;28;815;-64
2022/11/02 08:43:00;;;;;;;;;;;;;;;16.22;89.40;100767.31;5053287;28;1038;-63
2022/11/02 08:45:26;;;;;;;;;;;;;;;16.22;89.04;100767.31;5052903;28;1193;-62
2022/11/02 08:47:51;;;;;;;;;;;;;;;16.20;89.01;100779.78;5053265;28;1034;-64
2022/11/02 08:50:16;;;;;;;;;;;;;;;16.20;89.45;100785.31;5053582;28;995;-64
2022/11/02 08:52:42;;;;;;;;;;;;;;;16.20;89.47;100797.19;5056127;28;940;-63
2022/11/02 08:55:07;;;;;;;;;;;;;;;16.19;88.61;100790.03;5057450;28;1894;-64
2022/11/02 08:57:32;;;;;;;;;;;;;;;16.20;89.27;100794.41;5057002;28;1169;-63
2022/11/02 08:59:57;;;;;;;;;;;;;;;16.21;88.89;100789.72;5057531;28;810;-64
2022/11/02 09:02:22;;;;;;;;;;;;;;;16.20;89.06;100796.38;5057457;28;975;-63
2022/11/02 09:04:47;;;;;;;;;;;;;;;16.20;88.96;100796.38;5057173;28;837;-64
2022/11/02 09:07:13;;;;;;;;;;;;;;;16.21;89.30;100793.28;5056707;28;1197;-64
2022/11/02 09:09:38;;;;;;;;;;;;;;;16.22;88.96;100797.69;5056788;28;976;-63
2022/11/02 09:12:03;;;;;;;;;;;;;;;16.21;88.85;100809.03;5047946;28;1107;-64
2022/11/02 09:14:28;;;;;;;;;;;;;;;16.21;88.44;100807.09;5043061;28;1890;-63
2022/11/02 09:16:53;;;;;;;;;;;;;;;16.22;89.03;100810.69;5045902;28;1340;-64
2022/11/02 09:19:19;;;;;;;;;;;;;;;16.24;88.23;100814.78;5048114;28;1344;-64
2022/11/02 09:21:44;;;;;;;;;;;;;;;16.24;88.88;100809.25;5056690;28;829;-64
2022/11/02 09:24:09;;;;;;;;;;;;;;;16.22;88.59;100817.03;5056944;28;991;-64
2022/11/02 09:26:34;;;;;;;;;;;;;;;16.21;88.40;100818.16;5054265;28;1223;-63
2022/11/02 09:28:59;;;;;;;;;;;;;;;16.19;88.39;100816.81;5055507;28;921;-63
2022/11/02 09:31:24;;;;;;;;;;;;;;;16.20;88.28;100821.22;5055880;28;873;-62
2022/11/02 09:33:49;;;;;;;;;;;;;;;16.22;88.29;100832.78;5055733;28;1897;-63
2022/11/02 09:36:15;;;;;;;;;;;;;;;16.19;88.31;100831.44;5055477;28;1307;-64
2022/11/02 09:38:41;;;;;;;;;;;;;;;16.20;88.82;100824.81;5055265;28;1027;-63
2022/11/02 09:41:17;;;;;;;;;;;;;;;16.21;88.59;100825.63;5055666;28;864;-64
2022/11/02 09:43:50;;;;;;;;;;;;;;;16.20;88.56;100835.84;5055974;28;992;-64
2022/11/02 09:46:22;;;;;;;;;;;;;;;16.19;88.08;100836.97;5055943;28;1283;-64
2022/11/02 09:48:49;;;;;;;;;;;;;;;16.18;88.13;100846.38;5056453;28;1043;-63
2022/11/02 09:51:17;;;;;;;;;;;;;;;16.17;88.03;100833.69;5056428;28;877;-62
2022/11/02 09:53:57;;;;;;;;;;;;;;;16.17;87.98;100847.50;5056518;28;1901;-64
2022/11/02 09:56:23;;;;;;;;;;;;;;;16.18;88.54;100853.84;5055810;28;1177;-63
2022/11/02 09:58:53;;;;;;;;;;;;;;;16.19;87.84;100848.03;5056038;28;959;-64
2022/11/02 10:01:27;;;;;;;;;;;;;;;16.18;87.82;100854.66;5056129;28;806;-64
2022/11/02 10:04:00;;;;;;;;;;;;;;;16.19;88.07;100853.53;5055682;28;931;-63
2022/11/02 10:06:26;;;;;;;;;;;;;;;16.19;87.92;100863.78;5055985;28;1308;-62
2022/11/02 10:08:58;;;;;;;;;;;;;;;16.20;87.58;100862.66;5056190;28;846;-62
2022/11/02 10:11:35;;;;;;;;;;;;;;;16.20;88.03;100851.59;5056161;28;860;-64
2022/11/02 10:14:07;;;;;;;;;;;;;;;16.19;87.61;100861.00;5055846;28;1953;-64
2022/11/02 10:16:34;;;;;;;;;;;;;;;16.19;87.79;100861.00;5055575;28;1738;-64
2022/11/02 10:19:01;;;;;;;;;;;;;;;16.20;87.26;100857.94;5055940;28;967;-64
2022/11/02 10:21:31;;;;;;;;;;;;;;;16.21;87.56;100862.34;5055932;28;896;-64
2022/11/02 10:23:59;;;;;;;;;;;;;;;16.21;87.37;100869.81;5056093;28;920;-64
2022/11/02 10:26:28;;;;;;;;;;;;;;;16.21;86.99;100870.63;5055554;28;1264;-63
2022/11/02 10:29:09;;;;;;;;;;;;;;;16.20;87.76;100869.00;5056096;28;855;-63
2022/11/02 10:31:35;;;;;;;;;;;;;;;16.22;87.44;100863.97;5055795;28;1156;-64
2022/11/02 10:34:18;;;;;;;;;;;;;;;16.22;87.20;100877.78;5055727;28;1957;-62
2022/11/02 10:36:54;;;;;;;;;;;;;;;16.22;86.90;100880.56;5055020;28;1208;-64
2022/11/02 10:39:25;;;;;;;;;;;;;;;16.22;87.28;100880.56;5055413;28;995;-64
2022/11/02 10:42:07;;;;;;;;;;;;;;;16.23;87.33;100890.47;5055247;28;1054;-63
2022/11/02 10:44:42;;;;;;;;;;;;;;;16.22;87.46;100877.78;5055444;28;809;-64
2022/11/02 10:47:13;;;;;;;;;;;;;;;16.21;86.88;100886.38;5054883;28;1186;-64
2022/11/02 10:49:42;;;;;;;;;;;;;;;16.21;87.03;100873.38;5055256;28;809;-63
2022/11/02 10:52:10;;;;;;;;;;;;;;;16.23;87.39;100895.19;5055161;28;918;-63
2022/11/02 10:54:35;;;;;;;;;;;;;;;16.21;86.93;100892.72;5055079;28;1980;-63
2022/11/02 10:57:09;;;;;;;;;;;;;;;16.21;87.08;100897.44;5054703;28;1205;-62
2022/11/02 10:59:34;;;;;;;;;;;;;;;16.20;86.80;100901.31;5055329;28;1043;-64
2022/11/02 11:02:01;;;;;;;;;;;;;;;16.21;87.26;100916.75;5051491;28;1161;-64
2022/11/02 11:04:27;;;;;;;;;;;;;;;16.20;87.16;100907.66;5036047;28;1695;-64
2022/11/02 11:06:53;;;;;;;;;;;;;;;16.20;86.74;100912.38;5034631;28;1267;-64
2022/11/02 11:09:19;;;;;;;;;;;;;;;16.19;86.69;100910.72;5035024;28;968;-63
2022/11/02 11:12:04;;;;;;;;;;;;;;;16.20;87.03;100912.38;5035261;28;763;-64
2022/11/02 11:14:35;;;;;;;;;;;;;;;16.20;87.04;100912.38;5034054;28;1965;-64
2022/11/02 11:17:01;;;;;;;;;;;;;;;16.21;86.83;100916.75;5034647;28;1239;-64
2022/11/02 11:19:26;;;;;;;;;;;;;;;16.19;86.34;100910.72;5034995;28;897;-63
2022/11/02 11:21:52;;;;;;;;;;;;;;;16.21;86.85;100905.72;5034773;28;881;-63
2022/11/02 11:24:19;;;;;;;;;;;;;;;16.21;86.95;100909.31;5031682;28;845;-62
2022/11/02 11:26:44;;;;;;;;;;;;;;;16.22;87.00;100904.59;5033248;28;1296;-64
2022/11/02 11:29:21;;;;;;;;;;;;;;;16.22;86.12;100910.94;5033616;28;752;-62
2022/11/02 11:31:46;;;;;;;;;;;;;;;16.21;86.86;100884.44;5033789;28;790;-64
2022/11/02 11:34:22;;;;;;;;;;;;;;;16.22;86.50;100908.19;5033167;28;1961;-64
2022/11/02 11:36:47;;;;;;;;;;;;;;;16.21;86.75;100897.44;5032217;28;1293;-62
2022/11/02 11:39:21;;;;;;;;;;;;;;;16.21;85.93;100878.91;5033109;28;897;-64
2022/11/02 11:41:47;;;;;;;;;;;;;;;16.20;86.47;100885.56;5033578;28;1055;-63
2022/11/02 11:44:13;;;;;;;;;;;;;;;16.21;86.40;100895.50;5033532;28;778;-62
2022/11/02 11:46:46;;;;;;;;;;;;;;;16.22;86.16;100897.13;5033199;28;1228;-62
2022/11/02 11:49:32;;;;;;;;;;;;;;;16.22;85.76;100905.41;5033363;28;991;-63
2022/11/02 11:51:59;;;;;;;;;;;;;;;16.23;86.13;100906.22;5032971;28;853;-63
2022/11/02 11:54:28;;;;;;;;;;;;;;;16.24;86.07;100911.47;5033300;28;1961;-63
2022/11/02 11:56:57;;;;;;;;;;;;;;;16.05;77.30;100894.19;5033014;28;1210;-63
2022/11/02 11:59:27;;;;;;;;;;;;;;;15.97;80.31;100903.19;5033031;28;896;-62
2022/11/02 12:01:54;;;;;;;;;;;;;;;16.10;81.87;100918.91;5033308;28;924;-62
2022/11/02 12:04:26;;;;;;;;;;;;;;;16.19;83.04;100916.25;5033005;28;1047;-63
2022/11/02 12:06:54;;;;;;;;;;;;;;;16.25;83.31;100928.81;5032881;28;1215;-63
2022/11/02 12:09:25;;;;;;;;;;;;;;;16.29;83.03;100907.75;5033030;28;1032;-63
2022/11/02 12:11:50;;;;;;;;;;;;;;;16.31;83.55;100912.97;5033034;28;857;-62
2022/11/02 12:14:15;;;;;;;;;;;;;;;16.33;83.58;100927.31;5032925;28;1894;-62
2022/11/02 12:16:43;;;;;;;;;;;;;;;16.34;84.28;100910.41;5032667;28;1217;-63
2022/11/02 12:19:29;;;;;;;;;;;;;;;16.34;84.20;100921.44;5032821;28;1016;-63
2022/11/02 12:22:01;;;;;;;;;;;;;;;16.33;84.50;100916.25;5032663;28;1609;-62
2022/11/02 12:24:44;;;;;;;;;;;;;;;16.31;83.82;100935.06;5032856;28;821;-63
2022/11/02 12:27:28;;;;;;;;;;;;;;;16.31;83.99;100912.97;5035663;28;1189;-63
2022/11/02 12:30:00;;;;;;;;;;;;;;;16.31;84.42;100935.91;5036849;28;976;-63
2022/11/02 12:32:35;;;;;;;;;;;;;;;16.31;84.69;100918.50;5037112;28;739;-63
2022/11/02 12:35:26;;;;;;;;;;;;;;;16.31;84.48;100922.09;5036811;28;1893;-63
2022/11/02 12:38:03;;;;;;;;;;;;;;;16.31;84.76;100919.31;5036238;28;1000;-62
2022/11/02 12:40:37;;;;;;;;;;;;;;;16.31;83.97;100908.28;5036775;28;913;-63
2022/11/02 12:43:18;;;;;;;;;;;;;;;16.31;84.42;100911.03;5036515;28;877;-63
2022/11/02 12:45:48;;;;;;;;;;;;;;;16.32;84.41;100915.44;5036541;28;1274;-62
2022/11/02 12:48:22;;;;;;;;;;;;;;;16.33;84.11;100911.56;5036480;28;988;-62
2022/11/02 12:50:50;;;;;;;;;;;;;;;16.36;84.60;100904.56;5036722;28;853;-63
2022/11/02 12:53:38;;;;;;;;;;;;;;;16.36;84.43;100897.09;5036258;28;1882;-63
2022/11/02 12:56:06;;;;;;;;;;;;;;;16.39;84.00;100904.78;5036112;28;1275;-62
2022/11/02 12:58:37;;;;;;;;;;;;;;;16.41;83.98;100915.53;5036392;28;861;-63
2022/11/02 13:01:08;;;;;;;;;;;;;;;16.42;83.86;100914.38;5036247;28;1817;-63
2022/11/02 13:03:38;;;;;;;;;;;;;;;16.44;83.51;100921.22;5036141;28;992;-63
2022/11/02 13:06:07;;;;;;;;;;;;;;;16.47;84.05;100923.38;5035838;28;1301;-63
2022/11/02 13:08:35;;;;;;;;;;;;;;;16.49;83.91;100926.66;5018422;28;1091;-63
2022/11/02 13:11:03;;;;;;;;;;;;;;;16.53;83.31;100921.31;5035866;28;1940;-62